Time;durP1;ratioP1;P1;durP2;ratioP2;P2;SDS_P1;SDS_P2;PMS_P1;PMS_P2;Temp;Humidity;BMP_temperature;BMP_pressure;BME280_temperature;BME280_humidity;BME280_pressure;Samples;Min_cycle;Max_cycle;Signal;HPM_P1;HPM_P2
2021/12/20 00:01:10;;;;;;;2.22;2.03;;;;;;;5.42;66.77;99234.44;5349416;26;34111;-89
2021/12/20 00:03:39;;;;;;;1.98;1.77;;;;;;;5.25;67.44;99236.16;5371111;26;34183;-91
2021/12/20 00:06:08;;;;;;;2.37;1.83;;;;;;;5.38;67.09;99235.28;5367069;26;34280;-91
2021/12/20 00:08:37;;;;;;;3.55;2.62;;;;;;;5.46;66.59;99228.44;5347136;26;35157;-92
2021/12/20 00:11:08;;;;;;;2.75;2.40;;;;;;;5.27;67.17;99226.75;5345063;26;32314;-94
2021/12/20 00:13:55;;;;;;;2.03;1.70;;;;;;;5.36;66.87;99239.56;5340792;26;35583;31
2021/12/20 00:16:25;;;;;;;1.90;1.80;;;;;;;5.24;67.59;99234.44;5306622;27;32673;-92
2021/12/20 00:18:54;;;;;;;3.50;2.08;;;;;;;5.40;66.78;99238.72;5305230;27;33345;-92
2021/12/20 00:21:25;;;;;;;2.45;2.20;;;;;;;5.39;66.80;99226.75;5301442;27;34598;-91
2021/12/20 00:23:54;;;;;;;1.87;1.75;;;;;;;5.20;67.41;99227.59;5319817;27;34131;-91
2021/12/20 00:26:24;;;;;;;2.80;1.95;;;;;;;5.50;66.63;99235.28;5299316;27;33665;-90
2021/12/20 00:28:53;;;;;;;1.67;1.58;;;;;;;5.38;67.40;99240.44;5301004;27;32186;-93
2021/12/20 00:31:22;;;;;;;1.92;1.75;;;;;;;5.65;66.79;99238.72;5326578;27;33543;-91
2021/12/20 00:33:51;;;;;;;2.90;2.10;;;;;;;5.67;66.41;99237.00;5302297;27;34065;-90
2021/12/20 00:36:22;;;;;;;1.70;1.60;;;;;;;5.83;66.11;99236.16;5302721;27;35110;-94
2021/12/20 00:41:40;;;;;;;4.30;2.20;;;;;;;5.86;65.71;99241.28;5295716;27;35230;-90
2021/12/20 00:44:09;;;;;;;3.05;2.50;;;;;;;5.56;66.74;99249.91;5319254;27;35021;-89
2021/12/20 00:46:54;;;;;;;2.03;1.80;;;;;;;5.46;67.35;99256.75;5302156;27;34342;-89
2021/12/20 00:49:24;;;;;;;3.20;2.00;;;;;;;5.64;66.46;99255.03;5296150;27;34574;-89
2021/12/20 00:51:53;;;;;;;2.03;1.83;;;;;;;5.63;66.55;99254.19;5296758;27;34428;-87
2021/12/20 00:54:22;;;;;;;2.90;2.33;;;;;;;5.53;66.69;99260.16;5297707;27;32761;-88
2021/12/20 00:56:53;;;;;;;2.40;2.20;;;;;;;5.65;66.59;99283.31;5295860;27;34481;-91
2021/12/20 00:59:22;;;;;;;2.37;1.77;;;;;;;5.82;65.93;99288.47;5302846;27;34765;-92
2021/12/20 01:01:52;;;;;;;1.65;1.55;;;;;;;5.85;65.49;99282.50;5295548;27;34002;-90
2021/12/20 01:04:21;;;;;;;3.22;1.80;;;;;;;5.68;66.07;99270.47;5300335;27;33487;-89
2021/12/20 01:06:50;;;;;;;3.22;1.95;;;;;;;5.57;66.20;99270.47;5321937;27;33851;-89
2021/12/20 01:09:19;;;;;;;2.28;1.92;;;;;;;5.86;65.42;99284.19;5318559;27;32871;-90
2021/12/20 01:11:51;;;;;;;2.12;1.92;;;;;;;5.89;65.51;99292.75;5304596;27;35531;-88
2021/12/20 01:14:24;;;;;;;2.20;1.98;;;;;;;5.60;66.18;99299.63;5298601;27;34228;-91
2021/12/20 01:16:56;;;;;;;2.35;1.85;;;;;;;5.70;66.54;99301.34;5298106;27;33754;-91
2021/12/20 01:19:25;;;;;;;;;;;;;;;5.71;66.59;99310.78;5300308;27;33693;-87
2021/12/20 01:21:54;;;;;;;2.67;1.55;;;;;;;5.69;66.77;99295.34;5298527;27;35160;-89
2021/12/20 01:24:23;;;;;;;1.90;1.70;;;;;;;5.76;66.19;99314.22;5299817;27;33405;-89
2021/12/20 01:26:53;;;;;;;1.48;1.35;;;;;;;5.57;66.84;99309.06;5304102;27;34216;-91
2021/12/20 01:29:23;;;;;;;2.28;1.80;;;;;;;5.42;67.45;99318.50;5319248;27;34034;-93
2021/12/20 01:31:52;;;;;;;2.90;1.70;;;;;;;5.42;67.78;99303.91;5319384;27;33445;-95
2021/12/20 01:34:22;;;;;;;1.80;1.70;;;;;;;5.33;68.51;99314.19;5298609;27;35583;-91
2021/12/20 01:36:51;;;;;;;2.58;1.95;;;;;;;5.41;68.78;99307.31;5297138;27;33851;-92
2021/12/20 01:39:19;;;;;;;1.70;1.60;;;;;;;5.27;69.99;99302.16;5302953;27;33658;-91
2021/12/20 01:41:52;;;;;;;1.75;1.65;;;;;;;5.42;69.70;99297.91;5299515;27;35017;-89
2021/12/20 01:44:21;;;;;;;1.77;1.60;;;;;;;4.95;70.78;99296.91;5298830;27;35154;-93
2021/12/20 01:46:52;;;;;;;2.62;2.00;;;;;;;5.12;70.74;99284.13;5317602;27;33582;-90
2021/12/20 01:49:21;;;;;;;2.40;1.75;;;;;;;5.14;70.33;99285.84;5297103;27;32358;-93
2021/12/20 01:52:02;;;;;;;2.15;1.70;;;;;;;5.33;69.64;99293.59;5303572;27;35065;-89
2021/12/20 01:54:32;;;;;;;1.77;1.62;;;;;;;5.25;69.72;99295.31;5305812;27;35348;-94
2021/12/20 01:57:01;;;;;;;2.62;2.35;;;;;;;4.96;70.62;99293.53;5297332;27;34182;-89
2021/12/20 01:59:30;;;;;;;1.73;1.62;;;;;;;5.16;70.08;99295.28;5297533;27;34112;-91
2021/12/20 02:02:00;;;;;;;1.90;1.70;;;;;;;5.10;70.28;99299.56;5299980;27;32693;-90
2021/12/20 02:04:30;;;;;;;2.17;1.98;;;;;;;5.10;70.60;99324.41;5299792;27;35487;-92
2021/12/20 02:06:59;;;;;;;1.85;1.73;;;;;;;4.84;71.66;99335.44;5305422;27;32919;-91
2021/12/20 02:09:27;;;;;;;2.95;1.77;;;;;;;4.81;72.15;99316.56;5296782;27;34401;-90
2021/12/20 02:11:57;;;;;;;1.60;1.48;;;;;;;4.95;71.50;99316.63;5296013;27;33942;-90
2021/12/20 02:14:27;;;;;;;1.52;1.42;;;;;;;5.10;70.74;99330.41;5315929;27;34151;-90
2021/12/20 02:16:55;;;;;;;1.90;1.80;;;;;;;5.29;70.23;99333.00;5295818;27;35310;-94
2021/12/20 02:19:27;;;;;;;3.08;1.95;;;;;;;5.38;69.71;99339.91;5303380;27;34888;-92
2021/12/20 02:21:57;;;;;;;1.62;1.52;;;;;;;5.13;70.41;99340.69;5310354;27;33744;-91
2021/12/20 02:24:27;;;;;;;1.73;1.63;;;;;;;5.16;70.26;99344.13;5295903;27;33997;-92
2021/12/20 02:26:55;;;;;;;1.98;1.80;;;;;;;5.41;69.04;99356.19;5304222;27;33604;-90
2021/12/20 02:29:39;;;;;;;1.65;1.55;;;;;;;5.22;69.48;99345.03;5321186;27;34157;-89
2021/12/20 02:37:43;;;;;;;2.05;1.87;;;;;;;5.41;68.93;99351.03;5306588;27;32398;-91
2021/12/20 02:40:12;;;;;;;2.08;1.58;;;;;;;5.15;69.23;99345.84;5297096;27;34260;-91
2021/12/20 02:42:42;;;;;;;1.58;1.48;;;;;;;5.07;69.35;99360.37;5325624;27;34169;-90
2021/12/20 02:45:14;;;;;;;1.40;1.30;;;;;;;4.85;69.72;99373.12;5303426;27;34586;-89
2021/12/20 02:47:45;;;;;;;1.60;1.50;;;;;;;4.91;69.56;99373.19;5302193;27;32232;-93
2021/12/20 02:50:15;;;;;;;2.22;1.98;;;;;;;4.79;69.91;99364.56;5322589;27;33656;-92
2021/12/20 02:52:46;;;;;;;1.77;1.50;;;;;;;4.61;70.19;99370.44;5322534;27;33622;-92
2021/12/20 02:55:15;;;;;;;1.75;1.62;;;;;;;4.65;70.09;99373.03;5295560;27;35042;-90
2021/12/20 02:57:43;;;;;;;1.55;1.45;;;;;;;4.77;69.56;99394.53;5304721;27;34393;-89
2021/12/20 03:00:13;;;;;;;1.73;1.62;;;;;;;4.61;70.00;99386.72;5301878;27;32820;-88
2021/12/20 03:02:42;;;;;;;1.58;1.48;;;;;;;4.88;69.00;99388.59;5326862;27;33643;-91
2021/12/20 03:05:12;;;;;;;1.50;1.40;;;;;;;4.64;69.34;99393.56;5303392;27;34298;-92
2021/12/20 03:07:46;;;;;;;1.60;1.50;;;;;;;4.74;69.56;99391.97;5321010;27;33003;-91
2021/12/20 03:10:19;;;;;;;2.08;1.50;;;;;;;4.82;69.01;99397.97;5319699;27;33488;-91
2021/12/20 03:12:53;;;;;;;2.65;1.80;;;;;;;4.60;69.29;99386.72;5297147;27;35481;-92
2021/12/20 03:15:25;;;;;;;2.78;2.58;;;;;;;4.32;70.38;99388.25;5302238;27;34366;-95
2021/12/20 03:17:58;;;;;;;1.52;1.42;;;;;;;4.10;70.90;99382.94;5307197;27;34156;-89
2021/12/20 03:20:27;;;;;;;1.70;1.60;;;;;;;4.09;70.86;99380.38;5301584;27;32867;-89
2021/12/20 03:22:56;;;;;;;2.10;1.70;;;;;;;4.11;70.84;99387.25;5319655;27;35233;-92
2021/12/20 03:25:26;;;;;;;1.50;1.40;;;;;;;4.01;70.85;99378.63;5299759;27;33543;-91
2021/12/20 03:27:56;;;;;;;1.98;1.80;;;;;;;4.01;70.83;99393.13;5318167;27;32439;-91
2021/12/20 03:30:26;;;;;;;1.60;1.50;;;;;;;3.81;71.24;99404.06;5307112;27;34986;-90
2021/12/20 03:32:54;;;;;;;1.50;1.40;;;;;;;3.79;71.33;99397.22;5304656;27;32122;-89
2021/12/20 03:35:24;;;;;;;1.65;1.55;;;;;;;3.90;70.60;99405.03;5302673;27;34743;-91
2021/12/20 03:37:53;;;;;;;1.60;1.50;;;;;;;3.88;70.58;99404.16;5305498;27;33717;-91
2021/12/20 03:40:22;;;;;;;1.60;1.50;;;;;;;3.81;70.39;99404.06;5299082;27;34543;-91
2021/12/20 03:42:53;;;;;;;1.80;1.70;;;;;;;3.69;70.49;99403.09;5307834;27;34013;-91
2021/12/20 03:45:22;;;;;;;1.60;1.50;;;;;;;3.71;70.05;99404.84;5306518;27;35473;-89
2021/12/20 03:47:52;;;;;;;1.60;1.50;;;;;;;3.79;69.79;99407.47;5300471;27;32018;-91
2021/12/20 03:50:24;;;;;;;1.60;1.50;;;;;;;3.54;70.08;99422.63;5303705;27;34564;-93
2021/12/20 03:52:53;;;;;;;1.65;1.55;;;;;;;3.46;70.27;99433.66;5299281;27;34140;-92
2021/12/20 03:55:22;;;;;;;1.52;1.42;;;;;;;4.03;68.40;99443.63;5322943;27;34333;-92
2021/12/20 03:57:50;;;;;;;1.58;1.48;;;;;;;3.98;68.52;99434.19;5308692;27;34235;-90
2021/12/20 04:00:21;;;;;;;1.98;1.58;;;;;;;4.25;67.43;99448.97;5326194;27;34189;-89
2021/12/20 04:02:51;;;;;;;1.95;1.70;;;;;;;4.07;68.25;99459.94;5305186;27;34702;-89
2021/12/20 04:05:22;;;;;;;1.70;1.60;;;;;;;4.22;66.94;99446.38;5309052;27;33908;-89
2021/12/20 04:07:51;;;;;;;1.52;1.42;;;;;;;4.20;66.95;99448.91;5307617;27;32042;-88
2021/12/20 04:10:20;;;;;;;1.58;1.48;;;;;;;4.26;66.64;99443.00;5309739;27;33056;-88
2021/12/20 04:12:49;;;;;;;1.75;1.65;;;;;;;4.36;66.09;99456.75;5306018;27;32193;-88
2021/12/20 04:15:18;;;;;;;1.62;1.52;;;;;;;3.94;67.29;99450.38;5306075;27;32912;-89
2021/12/20 04:17:48;;;;;;;1.50;1.40;;;;;;;4.10;66.90;99449.69;5303415;27;33552;-90
2021/12/20 04:20:18;;;;;;;1.67;1.58;;;;;;;4.07;67.16;99457.38;5302005;27;32082;-89
2021/12/20 04:22:47;;;;;;;1.70;1.60;;;;;;;3.88;67.57;99446.06;5307680;27;33936;-89
2021/12/20 04:25:16;;;;;;;1.80;1.70;;;;;;;3.64;68.09;99442.41;5329211;27;34280;-89
2021/12/20 04:27:49;;;;;;;2.03;1.83;;;;;;;3.72;67.80;99447.63;5301137;27;33952;-88
2021/12/20 04:30:18;;;;;;;1.73;1.62;;;;;;;3.81;67.46;99457.97;5306087;27;31908;-88
2021/12/20 04:32:49;;;;;;;2.08;1.90;;;;;;;3.56;67.94;99450.88;5326084;27;34023;-88
2021/12/20 04:35:18;;;;;;;1.80;1.70;;;;;;;3.66;67.73;99456.97;5308008;27;33072;-88
2021/12/20 04:37:49;;;;;;;2.35;1.65;;;;;;;3.62;67.73;99459.50;5309795;27;33955;-88
2021/12/20 04:40:20;;;;;;;2.12;1.98;;;;;;;3.97;66.26;99469.25;5328063;27;33651;-88
2021/12/20 04:42:50;;;;;;;;;;;;;;;3.78;66.78;99470.78;5328023;27;34069;-89
2021/12/20 04:45:19;;;;;;;1.90;1.70;;;;;;;3.87;65.99;99475.16;5305399;27;34653;-88
2021/12/20 04:47:49;;;;;;;2.75;1.70;;;;;;;3.95;65.49;99480.34;5324624;27;34263;-88
2021/12/20 04:50:19;;;;;;;5.50;1.97;;;;;;;3.64;66.28;99480.00;5307781;27;34695;-91
2021/12/20 04:52:51;;;;;;;2.25;1.83;;;;;;;3.89;65.48;99480.28;5303490;27;34826;-95
2021/12/20 04:55:20;;;;;;;3.25;1.70;;;;;;;3.91;65.40;99473.47;5306646;27;34775;-88
2021/12/20 04:57:50;;;;;;;1.70;1.60;;;;;;;3.77;65.48;99483.56;5304562;27;31732;-91
2021/12/20 05:00:21;;;;;;;2.62;1.77;;;;;;;3.54;66.17;99491.03;5327374;27;33773;-89
2021/12/20 05:02:51;;;;;;;1.52;1.42;;;;;;;3.02;67.67;99496.34;5321681;27;33848;-93
2021/12/20 05:05:21;;;;;;;1.65;1.55;;;;;;;3.29;66.20;99488.16;5324613;27;34568;-92
2021/12/20 05:07:50;;;;;;;1.75;1.65;;;;;;;3.45;65.61;99490.91;5316347;27;33638;-94
2021/12/20 05:10:26;;;;;;;1.77;1.67;;;;;;;3.33;66.11;99502.72;5296389;27;34808;-91
2021/12/20 05:12:57;;;;;;;2.10;1.95;;;;;;;3.84;64.45;99511.91;5296967;27;33932;-91
2021/12/20 05:15:26;;;;;;;2.42;1.98;;;;;;;3.98;63.55;99511.19;5317065;27;34275;-94
2021/12/20 05:17:58;;;;;;;2.10;1.90;;;;;;;3.75;64.22;99516.06;5302509;27;34327;-92
2021/12/20 05:20:27;;;;;;;1.73;1.62;;;;;;;3.92;63.48;99518.81;5304996;27;33811;-91
2021/12/20 05:22:57;;;;;;;1.70;1.60;;;;;;;3.55;63.94;99519.25;5296572;27;35414;-92
2021/12/20 05:25:27;;;;;;;1.77;1.67;;;;;;;3.43;64.29;99521.66;5296487;27;34005;-92
2021/12/20 05:27:56;;;;;;;1.77;1.58;;;;;;;3.37;64.49;99531.84;5316203;27;33980;-95
2021/12/20 05:30:25;;;;;;;1.87;1.77;;;;;;;3.37;64.24;99532.69;5305643;27;34338;-91
2021/12/20 05:32:55;;;;;;;1.90;1.80;;;;;;;3.55;63.42;99533.78;5305854;27;34841;-92
2021/12/20 05:35:25;;;;;;;2.40;1.90;;;;;;;3.44;63.37;99538.78;5303888;27;34204;-92
2021/12/20 05:37:55;;;;;;;2.58;2.00;;;;;;;3.68;62.96;99533.09;5307873;27;31877;-90
2021/12/20 05:40:24;;;;;;;2.10;1.92;;;;;;;3.63;62.54;99534.75;5321946;27;34072;-90
2021/12/20 05:42:54;;;;;;;2.50;1.80;;;;;;;3.26;63.29;99538.50;5306067;27;32701;-90
2021/12/20 05:45:24;;;;;;;2.10;1.92;;;;;;;3.37;63.01;99549.78;5325976;27;34189;-94
2021/12/20 05:47:52;;;;;;;1.75;1.65;;;;;;;3.27;63.02;99551.37;5296879;27;33666;-91
2021/12/20 05:50:22;;;;;;;1.80;1.70;;;;;;;3.16;63.13;99555.47;5296715;27;34623;-93
2021/12/20 05:52:53;;;;;;;1.80;1.70;;;;;;;3.11;62.88;99545.16;5299973;27;34778;-92
2021/12/20 05:55:22;;;;;;;2.28;2.08;;;;;;;3.33;62.08;99558.28;5302977;27;34263;-91
2021/12/20 05:57:51;;;;;;;2.30;1.85;;;;;;;3.18;61.99;99556.34;5299210;27;32447;-92
2021/12/20 06:00:22;;;;;;;1.73;1.62;;;;;;;3.18;61.65;99561.50;5322408;27;34686;-90
2021/12/20 06:02:52;;;;;;;2.10;1.90;;;;;;;3.18;61.61;99556.34;5319610;27;34486;-89
2021/12/20 06:05:23;;;;;;;1.70;1.60;;;;;;;2.64;63.23;99572.59;5322836;27;33218;-89
2021/12/20 06:07:53;;;;;;;2.00;1.90;;;;;;;3.03;61.99;99569.81;5303609;27;33812;-94
2021/12/20 06:10:22;;;;;;;1.90;1.80;;;;;;;3.37;60.53;99572.88;5297398;27;34267;-90
2021/12/20 06:12:52;;;;;;;1.92;1.70;;;;;;;3.13;60.97;99569.09;5328892;27;34086;-89
2021/12/20 06:15:20;;;;;;;2.30;1.90;;;;;;;2.86;61.88;99573.81;5300687;27;34797;-92
2021/12/20 06:17:49;;;;;;;1.73;1.62;;;;;;;2.72;62.48;99573.59;5323107;27;33383;-90
2021/12/20 06:20:18;;;;;;;2.37;2.05;;;;;;;2.61;62.31;99581.09;5303038;27;35094;-92
2021/12/20 06:22:47;;;;;;;1.95;1.85;;;;;;;2.45;62.90;99577.41;5300225;27;34317;-91
2021/12/20 06:25:18;;;;;;;2.12;2.03;;;;;;;2.52;62.75;99588.63;5303484;27;33805;-90
2021/12/20 06:27:48;;;;;;;1.85;1.75;;;;;;;2.46;62.51;99591.91;5303054;27;33499;-88
2021/12/20 06:30:19;;;;;;;3.45;2.10;;;;;;;2.65;62.39;99587.13;5303813;27;31948;-90
2021/12/20 06:32:48;;;;;;;1.95;1.80;;;;;;;2.33;62.60;99605.34;5300740;27;37523;-88
2021/12/20 06:35:36;;;;;;;1.90;1.80;;;;;;;2.78;61.61;99595.06;5322208;27;33638;-90
2021/12/20 06:38:07;;;;;;;;;;;;;;;2.71;61.55;99607.75;5326285;27;33611;-88
2021/12/20 06:40:37;;;;;;;2.03;1.80;;;;;;;2.89;61.05;99602.91;5307077;27;32706;-88
2021/12/20 06:43:07;;;;;;;1.80;1.70;;;;;;;2.75;61.47;99609.50;5323693;27;33814;-90
2021/12/20 06:45:36;;;;;;;1.90;1.80;;;;;;;2.97;60.45;99605.56;5306948;27;33519;-89
2021/12/20 06:48:05;;;;;;;1.85;1.70;;;;;;;2.91;60.58;99610.63;5306854;27;32586;-90
2021/12/20 06:50:35;;;;;;;2.30;2.10;;;;;;;2.84;61.30;99619.91;5300015;27;35283;-89
2021/12/20 06:53:06;;;;;;;2.55;2.10;;;;;;;3.12;60.56;99630.63;5305067;27;32689;-90
2021/12/20 06:55:37;;;;;;;3.62;2.33;;;;;;;3.10;60.10;99630.59;5326924;27;34369;-92
2021/12/20 06:58:06;;;;;;;2.05;1.87;;;;;;;2.99;60.00;99626.97;5305357;27;33603;-90
2021/12/20 07:00:35;;;;;;;2.03;1.80;;;;;;;2.88;60.18;99626.81;5322553;27;33389;-89
2021/12/20 07:03:04;;;;;;;1.90;1.58;;;;;;;2.82;59.96;99624.12;5324644;27;34469;-89
2021/12/20 07:05:33;;;;;;;1.70;1.60;;;;;;;3.05;59.06;99636.47;5306487;27;33799;-89
2021/12/20 07:08:03;;;;;;;1.77;1.62;;;;;;;3.05;59.32;99641.59;5310043;27;32750;-89
2021/12/20 07:10:32;;;;;;;2.10;1.90;;;;;;;3.06;58.70;99635.63;5305891;27;34733;-88
2021/12/20 07:13:06;;;;;;;1.87;1.77;;;;;;;3.17;58.67;99652.91;5300508;27;34091;-88
2021/12/20 07:15:35;;;;;;;2.65;1.92;;;;;;;3.28;57.93;99630.00;5320747;27;33396;-91
2021/12/20 07:18:05;;;;;;;2.20;1.85;;;;;;;3.28;58.07;99641.97;5303694;27;33614;-90
2021/12/20 07:20:35;;;;;;;2.22;1.90;;;;;;;3.25;58.28;99644.47;5306633;27;32841;-89
2021/12/20 07:23:05;;;;;;;1.98;1.80;;;;;;;3.10;58.66;99639.97;5303797;27;34791;-89
2021/12/20 07:25:34;;;;;;;1.90;1.80;;;;;;;3.28;57.87;99640.25;5302469;27;34766;-89
2021/12/20 07:28:03;;;;;;;4.22;2.00;;;;;;;3.28;57.54;99637.69;5324995;27;33963;-89
2021/12/20 07:30:33;;;;;;;1.60;1.50;;;;;;;3.32;57.34;99636.91;5306455;27;34738;-89
2021/12/20 07:33:05;;;;;;;1.92;1.80;;;;;;;3.09;58.03;99640.81;5306804;27;34490;-89
2021/12/20 07:35:34;;;;;;;2.00;1.90;;;;;;;3.41;57.50;99642.19;5311269;27;32667;-88
2021/12/20 07:38:04;;;;;;;1.70;1.60;;;;;;;3.73;56.85;99626.38;5323514;27;34364;-92
2021/12/20 07:40:34;;;;;;;2.10;1.83;;;;;;;3.48;57.49;99621.72;5304756;27;32955;-88
2021/12/20 07:43:21;;;;;;;2.95;2.65;;;;;;;3.89;56.52;99618.84;5302897;27;35477;-89
2021/12/20 07:45:52;;;;;;;1.60;1.50;;;;;;;3.78;57.14;99616.16;5305275;27;34942;-95
2021/12/20 07:48:23;;;;;;;2.00;1.80;;;;;;;3.50;58.00;99617.50;5304417;27;36267;-88
2021/12/20 07:50:52;;;;;;;2.12;1.65;;;;;;;3.37;58.53;99621.59;5327788;27;32720;-88
2021/12/20 07:53:22;;;;;;;1.90;1.70;;;;;;;3.15;59.46;99616.12;5303262;27;33136;-91
2021/12/20 07:55:51;;;;;;;2.00;1.90;;;;;;;3.12;59.47;99608.41;5304005;27;32121;-90
2021/12/20 07:58:21;;;;;;;1.67;1.58;;;;;;;3.16;59.97;99625.53;5302612;27;35212;-90
2021/12/20 08:00:51;;;;;;;1.80;1.67;;;;;;;3.05;60.31;99623.66;5305024;27;34778;-89
2021/12/20 08:03:21;;;;;;;1.87;1.77;;;;;;;3.02;61.01;99627.03;5307570;27;33832;-88
2021/12/20 08:05:50;;;;;;;1.73;1.62;;;;;;;3.10;60.86;99645.97;5301890;27;33088;-90
2021/12/20 08:08:19;;;;;;;3.25;2.00;;;;;;;3.38;59.75;99633.56;5305526;27;36592;-91
2021/12/20 08:10:48;;;;;;;3.05;2.30;;;;;;;3.24;59.89;99641.06;5305919;27;34672;-91
2021/12/20 08:13:16;;;;;;;3.20;2.08;;;;;;;3.44;59.83;99637.94;5321976;27;34031;-90
2021/12/20 08:15:45;;;;;;;2.47;1.92;;;;;;;3.37;59.56;99645.53;5309488;27;34331;-90
2021/12/20 08:18:16;;;;;;;2.50;2.30;;;;;;;3.56;59.62;99635.53;5321286;27;34517;-87
2021/12/20 08:20:49;;;;;;;2.10;1.90;;;;;;;3.30;59.91;99646.25;5324292;27;34505;-91
2021/12/20 08:23:19;;;;;;;3.37;2.10;;;;;;;3.45;59.09;99642.22;5306216;27;32393;-87
2021/12/20 08:25:47;;;;;;;2.92;2.37;;;;;;;3.70;58.67;99636.59;5303010;27;34054;-91
2021/12/20 08:28:16;;;;;;;2.37;1.70;;;;;;;3.57;58.74;99638.09;5302394;27;34201;-91
2021/12/20 08:30:46;;;;;;;2.00;1.90;;;;;;;3.33;58.81;99638.59;5305878;27;34126;-89
2021/12/20 08:33:16;;;;;;;1.73;1.62;;;;;;;3.30;58.02;99646.25;5324093;27;34161;-89
2021/12/20 08:35:49;;;;;;;2.12;1.92;;;;;;;3.39;57.33;99638.72;5320901;27;34327;-90
2021/12/20 08:38:18;;;;;;;1.77;1.67;;;;;;;3.55;57.54;99656.88;5323260;27;34006;-88
2021/12/20 08:40:49;;;;;;;1.87;1.77;;;;;;;3.25;56.92;99649.59;5302544;27;33574;-89
2021/12/20 08:43:19;;;;;;;3.58;1.80;;;;;;;3.31;57.26;99657.37;5305469;27;34553;-91
2021/12/20 08:45:49;;;;;;;1.80;1.50;;;;;;;3.40;56.84;99639.56;5304143;27;35346;-92
2021/12/20 08:48:19;;;;;;;2.45;1.98;;;;;;;3.52;56.67;99644.03;5298560;27;33960;-91
2021/12/20 08:50:48;;;;;;;1.90;1.77;;;;;;;3.75;56.56;99652.91;5324363;27;33647;-91
2021/12/20 08:53:17;;;;;;;2.12;1.90;;;;;;;3.76;56.06;99638.38;5320523;27;34103;-91
2021/12/20 08:55:46;;;;;;;2.58;2.05;;;;;;;3.50;56.66;99631.16;5307965;27;34298;-89
2021/12/20 08:58:15;;;;;;;2.78;2.50;;;;;;;3.48;56.22;99632.88;5321582;27;34028;-88
2021/12/20 09:00:44;;;;;;;1.92;1.83;;;;;;;3.38;56.91;99647.25;5301853;27;34715;-90
2021/12/20 09:03:13;;;;;;;1.70;1.60;;;;;;;3.73;55.81;99641.75;5319813;27;33530;-89
2021/12/20 09:05:43;;;;;;;3.05;2.00;;;;;;;3.80;56.14;99661.53;5299282;27;33842;-91
2021/12/20 09:08:17;;;;;;;1.80;1.70;;;;;;;4.05;55.14;99665.28;5304446;27;33881;-89
2021/12/20 09:10:47;;;;;;;1.60;1.50;;;;;;;3.91;55.17;99664.22;5304893;27;34665;-93
2021/12/20 09:13:17;;;;;;;1.58;1.48;;;;;;;4.31;54.33;99681.84;5316332;27;33925;-91
2021/12/20 09:15:45;;;;;;;1.50;1.40;;;;;;;4.40;53.25;99674.28;5302405;27;32433;-90
2021/12/20 09:18:14;;;;;;;1.62;1.52;;;;;;;4.17;53.34;99672.28;5319720;27;33226;-92
2021/12/20 09:20:45;;;;;;;1.65;1.50;;;;;;;4.11;53.29;99661.94;5300153;27;34170;-91
2021/12/20 09:47:10;;;;;;;1.50;1.40;;;;;;;5.00;50.89;99656.84;5320931;27;35554;-90
2021/12/20 09:49:39;;;;;;;1.62;1.52;;;;;;;4.99;50.46;99665.44;5316510;27;33376;-91
2021/12/20 09:56:11;;;;;;;1.62;1.52;;;;;;;4.89;50.17;99661.91;5308606;27;35259;-89
2021/12/20 09:59:46;;;;;;;2.50;1.70;;;;;;;4.60;50.99;99667.63;5301520;27;33960;-89
2021/12/20 10:02:20;;;;;;;;;;;;;;;4.07;52.16;99643.06;5319714;27;33740;-91
2021/12/20 10:05:07;;;;;;;1.60;1.50;;;;;;;4.14;52.69;99661.97;5300322;27;34621;-90
2021/12/20 10:32:08;;;;;;;1.65;1.50;;;;;;;4.30;53.26;99668.16;5067164;28;34073;-90
2021/12/20 11:16:29;;;;;;;1.58;1.48;;;;;;;4.96;53.78;99671.41;5005883;28;33932;-91
2021/12/20 11:19:18;;;;;;;1.70;1.60;;;;;;;5.05;53.05;99680.91;5071589;28;33500;-90
2021/12/20 11:21:53;;;;;;;1.65;1.48;;;;;;;4.78;53.81;99677.22;5099745;27;33977;-90
2021/12/20 11:24:26;;;;;;;1.50;1.40;;;;;;;4.75;53.45;99687.47;5185433;27;33104;-92
2021/12/20 11:26:57;;;;;;;1.60;1.50;;;;;;;4.54;54.12;99682.97;5176914;27;32239;-93
2021/12/20 11:29:26;;;;;;;2.05;1.65;;;;;;;4.58;54.21;99692.44;5170248;27;34816;-93
2021/12/20 11:31:58;;;;;;;1.85;1.75;;;;;;;4.64;54.03;99687.38;5191505;27;34034;-91
2021/12/20 11:34:27;;;;;;;1.50;1.40;;;;;;;4.71;53.49;99690.84;5217051;27;35648;-92
2021/12/20 11:36:57;;;;;;;1.75;1.60;;;;;;;4.52;54.33;99688.94;5264469;27;33133;-92
2021/12/20 11:39:26;;;;;;;1.75;1.60;;;;;;;4.89;53.43;99685.06;5254058;27;33810;-94
2021/12/20 11:41:55;;;;;;;1.60;1.50;;;;;;;4.98;52.87;99681.69;5245102;27;35644;-93
2021/12/20 11:44:30;;;;;;;1.90;1.67;;;;;;;5.07;52.13;99680.09;5235334;27;34199;-91
2021/12/20 11:47:23;;;;;;;1.60;1.50;;;;;;;4.76;53.07;99678.06;5239502;27;34762;-90
2021/12/20 11:50:07;;;;;;;1.50;1.40;;;;;;;4.69;53.22;99679.72;5255927;27;34654;-90
2021/12/20 11:52:40;;;;;;;3.22;1.73;;;;;;;4.57;53.86;99689.88;5250894;27;35918;-92
2021/12/20 11:55:18;;;;;;;1.60;1.50;;;;;;;4.59;53.55;99691.59;5247450;27;34973;-92
2021/12/20 11:57:51;;;;;;;1.67;1.58;;;;;;;4.66;53.65;99688.25;5233317;27;33516;-91
2021/12/20 12:00:28;;;;;;;1.80;1.70;;;;;;;4.63;53.65;99697.63;5235145;27;33796;-91
2021/12/20 12:03:01;;;;;;;3.47;1.62;;;;;;;4.92;53.46;99700.50;5249524;27;33826;-90
2021/12/20 12:05:34;;;;;;;1.60;1.50;;;;;;;4.89;53.04;99698.75;5247969;27;33957;-92
2021/12/20 12:08:26;;;;;;;1.65;1.50;;;;;;;4.99;52.85;99683.44;5228795;27;34478;-91
2021/12/20 12:11:06;;;;;;;2.00;1.48;;;;;;;4.97;53.23;99685.12;5244666;27;33547;-92
2021/12/20 12:14:31;;;;;;;1.62;1.52;;;;;;;4.73;52.86;99686.59;5259331;27;34094;-91
2021/12/20 12:17:04;;;;;;;5.85;1.92;;;;;;;4.66;52.51;99684.81;5235339;27;33536;-89
2021/12/20 12:19:45;;;;;;;1.60;1.50;;;;;;;4.81;52.48;99691.81;5238551;27;33642;-89
2021/12/20 12:22:47;;;;;;;1.70;1.60;;;;;;;4.98;51.22;99682.56;5254207;27;33751;-90
2021/12/20 12:25:37;;;;;;;1.52;1.42;;;;;;;4.73;52.28;99691.72;5193841;27;33786;-89
2021/12/20 12:28:18;;;;;;;1.50;1.40;;;;;;;5.12;51.31;99691.28;5172360;27;32737;-90
2021/12/20 12:31:00;;;;;;;;;;;;;;;5.00;51.65;99687.72;5192630;27;33700;-90
2021/12/20 12:33:39;;;;;;;1.73;1.25;;;;;;;5.09;51.99;99695.50;5192781;27;34013;-92
2021/12/20 12:36:31;;;;;;;1.42;1.33;;;;;;;5.21;50.35;99685.34;5174545;27;32782;-91
2021/12/20 12:39:06;;;;;;;1.35;1.27;;;;;;;5.21;50.64;99692.19;5185123;27;34005;-90
2021/12/20 12:41:44;;;;;;;1.62;1.50;;;;;;;5.10;50.54;99710.97;5186334;27;34042;-90
2021/12/20 12:44:22;;;;;;;1.42;1.33;;;;;;;4.91;50.39;99704.78;5184134;27;34474;-94
2021/12/20 12:46:58;;;;;;;1.52;1.42;;;;;;;5.10;50.29;99713.53;5189966;27;33216;-90
2021/12/20 12:49:51;;;;;;;1.30;1.30;;;;;;;5.25;49.05;99712.81;5172930;27;34807;-92
2021/12/20 12:52:48;;;;;;;2.15;1.40;;;;;;;5.24;48.40;99718.81;5189421;27;33422;-90
2021/12/20 12:55:31;;;;;;;1.30;1.30;;;;;;;5.23;48.25;99732.50;5170865;27;35242;-89
2021/12/20 12:58:20;;;;;;;1.48;1.37;;;;;;;4.90;48.91;99733.91;5239754;27;32474;-89
2021/12/20 13:00:57;;;;;;;1.20;1.20;;;;;;;5.05;49.08;99733.22;5236156;27;34688;-89
2021/12/20 13:03:28;;;;;;;1.50;1.40;;;;;;;5.05;48.97;99743.50;5255444;27;33656;-91
2021/12/20 13:06:20;;;;;;;1.40;1.30;;;;;;;5.12;47.49;99736.69;5239066;27;33398;-91
2021/12/20 13:08:54;;;;;;;1.70;1.62;;;;;;;5.02;48.24;99740.00;5240079;27;35467;-90
2021/12/20 13:11:25;;;;;;;1.52;1.42;;;;;;;5.00;48.46;99750.31;5260470;27;33422;-92
2021/12/20 13:14:19;;;;;;;1.58;1.48;;;;;;;5.12;48.21;99746.97;5258787;27;36029;-93
2021/12/20 13:16:53;;;;;;;1.60;1.50;;;;;;;5.12;48.44;99755.56;5261383;27;34543;-91
2021/12/20 13:19:34;;;;;;;1.50;1.40;;;;;;;5.04;48.54;99756.31;5235078;27;34888;-89
2021/12/20 13:22:05;;;;;;;1.50;1.40;;;;;;;5.22;48.07;99755.63;5251784;27;34060;-90
2021/12/20 13:24:35;;;;;;;1.42;1.33;;;;;;;5.05;48.27;99752.88;5255810;27;34152;-93
2021/12/20 13:27:05;;;;;;;1.50;1.40;;;;;;;4.87;48.95;99756.16;5252261;27;34291;-91
2021/12/20 13:29:35;;;;;;;1.42;1.33;;;;;;;4.91;48.77;99755.34;5242505;27;32956;-90
2021/12/20 13:32:06;;;;;;;1.50;1.40;;;;;;;5.21;48.26;99759.06;5242701;27;34253;-91
2021/12/20 13:34:36;;;;;;;1.70;1.60;;;;;;;5.34;48.31;99754.06;5258688;27;34503;-91
2021/12/20 13:37:06;;;;;;;1.83;1.40;;;;;;;5.54;47.37;99764.50;5242257;27;33339;-88
2021/12/20 13:39:53;;;;;;;1.58;1.40;;;;;;;5.38;48.75;99767.78;5234390;27;33582;-89
2021/12/20 13:42:23;;;;;;;2.20;1.50;;;;;;;5.34;49.89;99768.62;5232151;27;34304;-94
2021/12/20 13:44:55;;;;;;;2.15;1.50;;;;;;;5.43;49.66;99780.69;5236615;27;34511;-91
2021/12/20 13:47:26;;;;;;;1.37;1.27;;;;;;;5.30;50.55;99769.44;5236765;27;31652;-93
2021/12/20 13:49:56;;;;;;;1.50;1.40;;;;;;;5.68;49.98;99779.22;5250261;27;33906;-90